Time;durP1;ratioP1;P1;durP2;ratioP2;P2;SDS_P1;SDS_P2;PMS_P1;PMS_P2;Temp;Humidity;BMP_temperature;BMP_pressure;BME280_temperature;BME280_humidity;BME280_pressure;Samples;Min_cycle;Max_cycle;Signal;HPM_P1;HPM_P2
2022/04/20 00:00:30;;;;;;;11.38;5.43;;;;;;;;;;5112432;28;20032;-70
2022/04/20 00:02:56;;;;;;;10.25;5.43;;;;;;;;;;5112288;28;20145;-73
2022/04/20 00:05:21;;;;;;;11.77;5.35;;;;;;;;;;5112818;28;20035;-71
2022/04/20 00:07:47;;;;;;;13.63;5.20;;;;;;;;;;5112665;28;20038;-68
2022/04/20 00:10:12;;;;;;;10.38;5.10;;;;;;;;;;5112692;28;20122;-68
2022/04/20 00:12:38;;;;;;;10.27;4.97;;;;;;;;;;5112441;28;20137;-73
2022/04/20 00:15:04;;;;;;;10.27;5.78;;;;;;;;;;5112554;28;20035;-69
2022/04/20 00:17:30;;;;;;;9.00;5.25;;;;;;;;;;5112233;28;20023;-69
2022/04/20 00:19:55;;;;;;;8.95;4.93;;;;;;;;;;5112329;28;20019;-68
2022/04/20 00:22:20;;;;;;;9.98;5.05;;;;;;;;;;5111318;28;20035;-71
2022/04/20 00:24:46;;;;;;;10.93;5.38;;;;;;;;;;5111926;28;20529;-72
2022/04/20 00:27:11;;;;;;;9.50;5.15;;;;;;;;;;5112260;28;20023;-73
2022/04/20 00:29:37;;;;;;;10.35;5.45;;;;;;;;;;5112083;28;20034;-72
2022/04/20 00:32:02;;;;;;;10.05;5.07;;;;;;;;;;5112248;28;20024;-72
2022/04/20 00:34:28;;;;;;;8.13;4.90;;;;;;;;;;5111831;28;20050;-74
2022/04/20 00:36:55;;;;;;;12.45;5.65;;;;;;;;;;5112197;28;20107;-74
2022/04/20 00:39:21;;;;;;;8.95;5.18;;;;;;;;;;5112106;27;20118;-69
2022/04/20 00:41:47;;;;;;;9.00;5.15;;;;;;;;;;5112039;28;20193;-69
2022/04/20 00:44:14;;;;;;;9.30;4.82;;;;;;;;;;5111566;28;20028;-73
2022/04/20 00:46:40;;;;;;;13.10;5.70;;;;;;;;;;5112013;28;20034;-72
2022/04/20 00:49:09;;;;;;;14.20;6.10;;;;;;;;;;5112279;28;20032;-71
2022/04/20 00:51:35;;;;;;;9.82;5.30;;;;;;;;;;5111438;28;20034;-69
2022/04/20 00:54:01;;;;;;;10.07;5.35;;;;;;;;;;5111384;28;20023;-73
2022/04/20 00:56:28;;;;;;;10.50;5.53;;;;;;;;;;5111672;28;20562;-73
2022/04/20 00:58:56;;;;;;;10.85;5.47;;;;;;;;;;5111505;27;20399;-74
2022/04/20 01:01:22;;;;;;;9.50;5.47;;;;;;;;;;5111663;28;20027;-72
2022/04/20 01:03:47;;;;;;;11.45;5.55;;;;;;;;;;5111496;28;20073;-74
2022/04/20 01:06:13;;;;;;;12.73;6.07;;;;;;;;;;5111473;28;20041;-74
2022/04/20 01:08:38;;;;;;;12.55;7.07;;;;;;;;;;5111279;28;20031;-72
2022/04/20 01:11:05;;;;;;;9.80;6.20;;;;;;;;;;5111286;28;20027;-72
2022/04/20 01:13:30;;;;;;;13.90;6.72;;;;;;;;;;5110939;28;20047;-74
2022/04/20 01:15:56;;;;;;;11.68;6.78;;;;;;;;;;5110830;28;20066;-72
2022/04/20 01:18:22;;;;;;;12.68;6.35;;;;;;;;;;5111267;28;20034;-67
2022/04/20 01:20:47;;;;;;;12.35;6.75;;;;;;;;;;5111365;28;20031;-74
2022/04/20 01:23:13;;;;;;;16.10;6.55;;;;;;;;;;5110998;28;20482;-68
2022/04/20 01:25:39;;;;;;;11.02;6.30;;;;;;;;;;5110885;28;20051;-72
2022/04/20 01:28:05;;;;;;;11.73;6.15;;;;;;;;;;5110946;28;20062;-69
2022/04/20 01:30:31;;;;;;;15.40;6.85;;;;;;;;;;5110637;28;20028;-70
2022/04/20 01:32:57;;;;;;;15.02;6.43;;;;;;;;;;5110889;28;20027;-71
2022/04/20 01:35:23;;;;;;;15.27;6.43;;;;;;;;;;5111028;28;20015;-72
2022/04/20 01:37:51;;;;;;;10.35;6.78;;;;;;;;;;5110912;28;20494;-70
2022/04/20 01:40:17;;;;;;;11.90;6.88;;;;;;;;;;5110829;28;20172;-69
2022/04/20 01:42:43;;;;;;;14.32;6.70;;;;;;;;;;5110648;28;20534;-73
2022/04/20 01:45:09;;;;;;;15.20;6.55;;;;;;;;;;5110592;28;20577;-70
2022/04/20 01:47:34;;;;;;;12.32;6.90;;;;;;;;;;5110588;28;20028;-73
2022/04/20 01:49:59;;;;;;;12.82;7.05;;;;;;;;;;5110753;28;20027;-69
2022/04/20 01:52:25;;;;;;;20.42;7.47;;;;;;;;;;5111209;28;20023;-68
2022/04/20 01:54:50;;;;;;;15.57;7.00;;;;;;;;;;5110631;28;20172;-70
2022/04/20 01:57:16;;;;;;;13.18;6.70;;;;;;;;;;5110634;28;20045;-68
2022/04/20 01:59:41;;;;;;;15.80;7.05;;;;;;;;;;5110383;28;20028;-73
2022/04/20 02:04:51;;;;;;;13.07;6.43;;;;;;;;;;5110836;28;20038;-67
2022/04/20 02:07:16;;;;;;;11.32;6.30;;;;;;;;;;5110670;28;20020;-70
2022/04/20 02:09:42;;;;;;;11.52;6.65;;;;;;;;;;5110559;28;20471;-69
2022/04/20 02:12:08;;;;;;;12.25;6.75;;;;;;;;;;5110653;28;20038;-69
2022/04/20 02:14:34;;;;;;;13.15;6.05;;;;;;;;;;5110288;28;20031;-68
2022/04/20 02:16:59;;;;;;;20.83;6.80;;;;;;;;;;5110324;28;20023;-72
2022/04/20 02:19:24;;;;;;;13.18;6.88;;;;;;;;;;5110308;28;20122;-68
2022/04/20 02:21:50;;;;;;;10.88;6.25;;;;;;;;;;5110388;28;20173;-69
2022/04/20 02:24:16;;;;;;;12.27;6.47;;;;;;;;;;5110031;28;20047;-72
2022/04/20 02:26:41;;;;;;;11.35;6.47;;;;;;;;;;5111808;28;20059;-73
2022/04/20 02:29:07;;;;;;;13.23;5.88;;;;;;;;;;5113288;28;20368;-70
2022/04/20 02:31:32;;;;;;;10.63;6.13;;;;;;;;;;5114453;28;20513;-71
2022/04/20 02:33:57;;;;;;;11.32;6.03;;;;;;;;;;5114085;28;20028;-68
2022/04/20 02:36:23;;;;;;;13.13;5.90;;;;;;;;;;5114316;28;20073;-70
2022/04/20 02:38:49;;;;;;;16.88;6.30;;;;;;;;;;5114108;28;20034;-68
2022/04/20 02:41:15;;;;;;;16.70;6.47;;;;;;;;;;5114402;28;20034;-70
2022/04/20 02:43:41;;;;;;;13.00;5.80;;;;;;;;;;5114226;28;20089;-71
2022/04/20 02:46:07;;;;;;;11.50;6.00;;;;;;;;;;5114183;28;20027;-69
2022/04/20 02:48:32;;;;;;;12.63;5.82;;;;;;;;;;5114052;28;20031;-70
2022/04/20 02:50:58;;;;;;;14.10;5.70;;;;;;;;;;5113874;28;20036;-71
2022/04/20 02:53:23;;;;;;;10.10;5.75;;;;;;;;;;5113871;28;20031;-69
2022/04/20 02:55:49;;;;;;;16.60;6.10;;;;;;;;;;5113777;28;20099;-72
2022/04/20 02:58:14;;;;;;;12.93;5.85;;;;;;;;;;5113958;28;20060;-69
2022/04/20 03:00:40;;;;;;;12.35;5.95;;;;;;;;;;5113877;28;20031;-73
2022/04/20 03:03:05;;;;;;;14.65;6.50;;;;;;;;;;5114185;28;20468;-72
2022/04/20 03:05:31;;;;;;;12.63;5.60;;;;;;;;;;5113763;28;20467;-71
2022/04/20 03:07:56;;;;;;;9.35;5.63;;;;;;;;;;5113777;27;20026;-70
2022/04/20 03:10:25;;;;;;;14.05;6.18;;;;;;;;;;5113518;27;20039;-68
2022/04/20 03:12:51;;;;;;;13.43;5.78;;;;;;;;;;5113642;28;20032;-71
2022/04/20 03:15:17;;;;;;;12.45;5.78;;;;;;;;;;5113673;28;20049;-70
2022/04/20 03:17:43;;;;;;;15.95;6.35;;;;;;;;;;5113734;28;20493;-68
2022/04/20 03:20:09;;;;;;;12.50;5.95;;;;;;;;;;5113691;28;20035;-70
2022/04/20 03:22:35;;;;;;;15.55;5.97;;;;;;;;;;5113616;28;20452;-71
2022/04/20 03:25:00;;;;;;;15.13;7.00;;;;;;;;;;5113159;28;20040;-72
2022/04/20 03:27:26;;;;;;;17.48;6.72;;;;;;;;;;5113340;28;20058;-71
2022/04/20 03:29:51;;;;;;;13.05;6.10;;;;;;;;;;5113278;28;20044;-71
2022/04/20 03:32:17;;;;;;;14.95;6.40;;;;;;;;;;5113454;28;20027;-68
2022/04/20 03:34:43;;;;;;;10.02;6.28;;;;;;;;;;5113113;28;20057;-71
2022/04/20 03:37:12;;;;;;;13.13;6.05;;;;;;;;;;5112733;28;20020;-69
2022/04/20 03:39:38;;;;;;;14.50;6.18;;;;;;;;;;5113517;27;20027;-74
2022/04/20 03:42:04;;;;;;;18.05;6.90;;;;;;;;;;5113097;28;20568;-69
2022/04/20 03:44:30;;;;;;;17.75;6.53;;;;;;;;;;5112725;28;20178;-72
2022/04/20 03:46:56;;;;;;;13.32;5.68;;;;;;;;;;5112932;28;20439;-70
2022/04/20 03:49:21;;;;;;;14.00;6.38;;;;;;;;;;5112968;28;20057;-69
2022/04/20 03:51:47;;;;;;;11.25;5.63;;;;;;;;;;5112945;27;20028;-68
2022/04/20 03:54:13;;;;;;;11.93;6.07;;;;;;;;;;5112834;28;20026;-74
2022/04/20 03:59:23;;;;;;;18.25;6.30;;;;;;;;;;5112868;28;20049;-70
2022/04/20 04:01:49;;;;;;;12.20;5.90;;;;;;;;;;5112719;28;20024;-70
2022/04/20 04:04:15;;;;;;;12.30;6.40;;;;;;;;;;5112536;28;20418;-69
2022/04/20 04:06:40;;;;;;;11.77;6.15;;;;;;;;;;5112617;28;20027;-69
2022/04/20 04:09:06;;;;;;;14.45;5.82;;;;;;;;;;5112617;27;20114;-68
2022/04/20 04:11:32;;;;;;;11.45;5.63;;;;;;;;;;5112861;28;20027;-71
2022/04/20 04:13:57;;;;;;;12.70;5.97;;;;;;;;;;5112598;28;20023;-73
2022/04/20 04:16:23;;;;;;;17.83;6.28;;;;;;;;;;5112157;28;20383;-73
2022/04/20 04:18:48;;;;;;;12.90;5.63;;;;;;;;;;5112361;28;20418;-70
2022/04/20 04:21:13;;;;;;;12.98;6.57;;;;;;;;;;5112380;28;20055;-69
2022/04/20 04:23:39;;;;;;;17.92;6.70;;;;;;;;;;5112315;28;20023;-72
2022/04/20 04:26:04;;;;;;;14.82;6.35;;;;;;;;;;5111908;28;20036;-71
2022/04/20 04:28:30;;;;;;;13.20;6.07;;;;;;;;;;5112839;28;20050;-75
2022/04/20 04:30:55;;;;;;;15.88;6.85;;;;;;;;;;5112398;28;20019;-68
2022/04/20 04:33:20;;;;;;;12.32;6.00;;;;;;;;;;5112574;28;20444;-72
2022/04/20 04:35:46;;;;;;;16.90;6.65;;;;;;;;;;5111893;28;20019;-71
2022/04/20 04:38:13;;;;;;;17.83;7.28;;;;;;;;;;5111834;28;20028;-70
2022/04/20 04:40:39;;;;;;;16.88;6.65;;;;;;;;;;5112092;28;20035;-72
2022/04/20 04:43:04;;;;;;;17.90;7.20;;;;;;;;;;5111949;28;20026;-68
2022/04/20 04:50:58;;;;;;;16.38;6.95;;;;;;;;;;5112042;28;20038;-72
2022/04/20 04:53:23;;;;;;;13.68;7.25;;;;;;;;;;5111673;28;20019;-73
2022/04/20 04:55:49;;;;;;;15.95;6.72;;;;;;;;;;5111151;28;20465;-74
2022/04/20 04:58:14;;;;;;;13.43;7.03;;;;;;;;;;5111662;28;20027;-68
2022/04/20 05:00:40;;;;;;;14.60;7.05;;;;;;;;;;5111690;28;20407;-69
2022/04/20 05:03:08;;;;;;;18.60;7.65;;;;;;;;;;5111753;28;20032;-69
2022/04/20 05:05:34;;;;;;;13.85;6.78;;;;;;;;;;5111572;28;20361;-72
2022/04/20 05:07:59;;;;;;;12.90;6.30;;;;;;;;;;5111510;28;20679;-74
2022/04/20 05:10:24;;;;;;;16.15;6.88;;;;;;;;;;5111347;28;20118;-68
2022/04/20 05:12:50;;;;;;;14.40;6.75;;;;;;;;;;5111305;28;20028;-72
2022/04/20 05:15:16;;;;;;;14.75;6.90;;;;;;;;;;5111011;28;20063;-70
2022/04/20 05:17:41;;;;;;;17.58;6.75;;;;;;;;;;5111438;28;20024;-71
2022/04/20 05:20:07;;;;;;;11.98;7.05;;;;;;;;;;5111296;28;20015;-71
2022/04/20 05:22:33;;;;;;;12.38;6.80;;;;;;;;;;5111523;28;20028;-72
2022/04/20 05:24:58;;;;;;;15.25;6.97;;;;;;;;;;5110918;28;20442;-72
2022/04/20 05:27:24;;;;;;;12.70;7.13;;;;;;;;;;5111373;28;20378;-72
2022/04/20 05:29:49;;;;;;;12.25;7.20;;;;;;;;;;5110730;28;20465;-72
2022/04/20 05:32:14;;;;;;;16.90;6.78;;;;;;;;;;5110915;28;20027;-71
2022/04/20 05:34:41;;;;;;;12.45;6.60;;;;;;;;;;5110959;28;20020;-72
2022/04/20 05:42:34;;;;;;;12.05;7.15;;;;;;;;;;5110665;28;20387;-73
2022/04/20 05:45:00;;;;;;;18.63;8.57;;;;;;;;;;5110584;28;20023;-73
2022/04/20 05:47:25;;;;;;;16.40;7.80;;;;;;;;;;5110601;28;20019;-68
2022/04/20 05:49:51;;;;;;;17.13;7.57;;;;;;;;;;5111049;28;20080;-71
2022/04/20 05:52:16;;;;;;;15.10;7.18;;;;;;;;;;5110852;28;20020;-72
2022/04/20 05:54:42;;;;;;;12.23;7.78;;;;;;;;;;5111140;28;20467;-69
2022/04/20 05:57:07;;;;;;;16.30;7.32;;;;;;;;;;5110637;28;20030;-73
2022/04/20 05:59:33;;;;;;;14.27;7.88;;;;;;;;;;5110689;28;20436;-69
2022/04/20 06:01:58;;;;;;;20.00;8.45;;;;;;;;;;5110174;28;20026;-69
2022/04/20 06:04:25;;;;;;;17.13;7.55;;;;;;;;;;5110391;28;20035;-69
2022/04/20 06:06:50;;;;;;;18.73;8.82;;;;;;;;;;5110404;28;20053;-72
2022/04/20 06:09:15;;;;;;;16.20;7.20;;;;;;;;;;5110293;28;20031;-72
2022/04/20 06:11:41;;;;;;;14.02;7.55;;;;;;;;;;5110517;28;20027;-70
2022/04/20 06:14:07;;;;;;;12.80;7.18;;;;;;;;;;5110284;28;20020;-67
2022/04/20 06:16:32;;;;;;;17.80;7.03;;;;;;;;;;5110096;28;20456;-69
2022/04/20 06:18:58;;;;;;;16.15;7.10;;;;;;;;;;5110251;28;20036;-73
2022/04/20 06:21:23;;;;;;;15.80;6.65;;;;;;;;;;5110124;28;20020;-72
2022/04/20 06:23:49;;;;;;;16.95;6.72;;;;;;;;;;5110229;28;20047;-67
2022/04/20 06:26:14;;;;;;;15.32;6.43;;;;;;;;;;5109975;28;20044;-71
2022/04/20 06:28:40;;;;;;;14.15;6.30;;;;;;;;;;5110199;28;20392;-69
2022/04/20 06:31:05;;;;;;;18.05;6.65;;;;;;;;;;5110257;28;20110;-73
2022/04/20 06:33:31;;;;;;;14.48;6.53;;;;;;;;;;5110246;28;20024;-68
2022/04/20 06:35:58;;;;;;;17.60;6.05;;;;;;;;;;5110145;28;20146;-68
2022/04/20 06:38:23;;;;;;;15.63;6.55;;;;;;;;;;5110046;28;20110;-69
2022/04/20 06:40:50;;;;;;;14.20;6.53;;;;;;;;;;5110163;28;20464;-69
2022/04/20 06:43:15;;;;;;;16.25;6.50;;;;;;;;;;5110277;28;20440;-72
2022/04/20 06:45:41;;;;;;;13.30;5.90;;;;;;;;;;5109880;28;20059;-68
2022/04/20 06:48:06;;;;;;;14.23;5.95;;;;;;;;;;5110207;28;20092;-71
2022/04/20 06:50:32;;;;;;;16.02;5.95;;;;;;;;;;5109969;28;20114;-69
2022/04/20 06:58:32;;;;;;;13.30;5.65;;;;;;;;;;5110121;28;20038;-68
2022/04/20 07:00:58;;;;;;;15.77;6.03;;;;;;;;;;5109820;28;20024;-68
2022/04/20 07:03:24;;;;;;;16.65;6.45;;;;;;;;;;5109942;28;20123;-68
2022/04/20 07:05:50;;;;;;;17.92;6.80;;;;;;;;;;5110095;28;20031;-69
2022/04/20 07:08:16;;;;;;;11.93;5.57;;;;;;;;;;5109964;28;20019;-69
2022/04/20 07:10:41;;;;;;;16.50;6.38;;;;;;;;;;5109893;28;20019;-75
2022/04/20 07:13:07;;;;;;;17.17;6.72;;;;;;;;;;5111821;28;20495;-74
2022/04/20 07:15:32;;;;;;;12.90;5.38;;;;;;;;;;5113391;28;20161;-74
2022/04/20 07:17:58;;;;;;;14.05;5.78;;;;;;;;;;5113626;28;20053;-68
2022/04/20 07:20:23;;;;;;;11.00;5.30;;;;;;;;;;5113676;28;20087;-68
2022/04/20 07:22:50;;;;;;;16.50;5.38;;;;;;;;;;5113710;28;20019;-72
2022/04/20 07:25:16;;;;;;;11.52;5.05;;;;;;;;;;5113368;28;20047;-70
2022/04/20 07:27:43;;;;;;;14.75;5.40;;;;;;;;;;5111817;28;20395;-73
2022/04/20 07:30:09;;;;;;;13.65;5.63;;;;;;;;;;5113128;28;20062;-68
2022/04/20 07:32:34;;;;;;;12.38;5.63;;;;;;;;;;5113215;28;20031;-69
2022/04/20 07:34:59;;;;;;;10.02;5.45;;;;;;;;;;5113299;28;20019;-70
2022/04/20 07:37:25;;;;;;;9.07;5.05;;;;;;;;;;5113332;28;20024;-73
2022/04/20 07:39:50;;;;;;;12.45;5.63;;;;;;;;;;5113223;28;20039;-72
2022/04/20 07:42:16;;;;;;;11.52;4.95;;;;;;;;;;5113283;28;20501;-68
2022/04/20 07:44:41;;;;;;;12.15;5.25;;;;;;;;;;5113015;28;20092;-69
2022/04/20 07:47:07;;;;;;;12.85;4.93;;;;;;;;;;5112787;28;20475;-71
2022/04/20 07:52:20;;;;;;;9.77;4.65;;;;;;;;;;5113406;28;20174;-73
2022/04/20 07:54:46;;;;;;;13.95;4.72;;;;;;;;;;5113032;28;20037;-70
2022/04/20 07:57:15;;;;;;;10.48;4.85;;;;;;;;;;5111418;28;20027;-68
2022/04/20 07:59:41;;;;;;;13.63;5.30;;;;;;;;;;5112699;28;20111;-68
2022/04/20 08:02:07;;;;;;;13.25;4.75;;;;;;;;;;5112635;28;20024;-69
2022/04/20 08:04:33;;;;;;;15.38;4.93;;;;;;;;;;5112565;28;20031;-73
2022/04/20 08:06:58;;;;;;;16.73;5.53;;;;;;;;;;5112494;28;20031;-73
2022/04/20 08:09:24;;;;;;;9.75;5.18;;;;;;;;;;5112640;28;20075;-73
2022/04/20 08:11:50;;;;;;;11.13;5.00;;;;;;;;;;5112699;28;20043;-69
2022/04/20 08:14:16;;;;;;;13.95;5.63;;;;;;;;;;5112469;28;20020;-70
2022/04/20 08:16:44;;;;;;;15.55;5.47;;;;;;;;;;5112659;28;20057;-72
2022/04/20 08:19:10;;;;;;;11.48;5.63;;;;;;;;;;5112501;28;20065;-73
2022/04/20 08:21:36;;;;;;;12.85;4.95;;;;;;;;;;5112263;28;20068;-71
2022/04/20 08:24:03;;;;;;;11.63;5.38;;;;;;;;;;5111927;28;20084;-75
2022/04/20 08:26:28;;;;;;;15.32;5.30;;;;;;;;;;5112131;27;20403;-72
2022/04/20 08:28:54;;;;;;;15.70;5.88;;;;;;;;;;5112073;28;20035;-69
2022/04/20 08:31:19;;;;;;;14.38;6.00;;;;;;;;;;5112035;28;20464;-70
2022/04/20 08:33:45;;;;;;;23.52;6.15;;;;;;;;;;5112294;28;20038;-69
2022/04/20 08:36:12;;;;;;;13.45;5.82;;;;;;;;;;5111790;28;20051;-71
2022/04/20 08:38:38;;;;;;;12.68;5.72;;;;;;;;;;5111808;28;20027;-70
2022/04/20 08:41:05;;;;;;;11.75;5.50;;;;;;;;;;5112327;28;20050;-69
2022/04/20 08:43:31;;;;;;;13.25;5.90;;;;;;;;;;5112373;28;20043;-67
2022/04/20 08:46:02;;;;;;;14.30;5.57;;;;;;;;;;5111837;28;20028;-71
2022/04/20 08:48:28;;;;;;;14.68;5.72;;;;;;;;;;5111942;28;20027;-67
2022/04/20 08:50:54;;;;;;;9.93;5.38;;;;;;;;;;5111863;28;20035;-74
2022/04/20 08:53:20;;;;;;;15.75;6.13;;;;;;;;;;5111589;28;20073;-70
2022/04/20 08:55:46;;;;;;;11.23;5.15;;;;;;;;;;5111503;28;20051;-73
2022/04/20 08:58:12;;;;;;;14.38;5.55;;;;;;;;;;5111305;28;20028;-72
2022/04/20 09:00:38;;;;;;;16.02;5.68;;;;;;;;;;5111431;28;20494;-71
2022/04/20 09:03:04;;;;;;;12.10;4.88;;;;;;;;;;5111328;28;20042;-67
2022/04/20 09:05:34;;;;;;;15.48;5.22;;;;;;;;;;5111558;28;20028;-69
2022/04/20 09:08:10;;;;;;;13.80;4.95;;;;;;;;;;5111267;28;20023;-69
2022/04/20 09:10:36;;;;;;;7.97;4.82;;;;;;;;;;5111120;28;20031;-72
2022/04/20 09:13:08;;;;;;;10.60;5.10;;;;;;;;;;5111105;28;20414;-71
2022/04/20 09:15:35;;;;;;;8.88;4.90;;;;;;;;;;5111103;28;20054;-68
2022/04/20 09:18:03;;;;;;;16.30;5.45;;;;;;;;;;5111133;28;20049;-68
2022/04/20 09:20:31;;;;;;;16.13;5.60;;;;;;;;;;5111330;28;20038;-69
2022/04/20 09:23:13;;;;;;;8.00;4.35;;;;;;;;;;5111081;28;20033;-75
2022/04/20 09:25:41;;;;;;;8.35;4.65;;;;;;;;;;5110910;28;20051;-69
2022/04/20 09:28:07;;;;;;;7.82;4.22;;;;;;;;;;5110801;28;20031;-67
2022/04/20 09:30:41;;;;;;;10.38;4.55;;;;;;;;;;5110735;28;20038;-70
2022/04/20 09:33:10;;;;;;;11.50;4.47;;;;;;;;;;5110888;28;20398;-73
2022/04/20 09:35:45;;;;;;;12.57;4.80;;;;;;;;;;5109439;28;20086;-69
2022/04/20 09:38:11;;;;;;;10.57;4.10;;;;;;;;;;5110852;28;20577;-73
2022/04/20 09:40:38;;;;;;;11.55;4.43;;;;;;;;;;5110955;28;20108;-69
2022/04/20 09:43:15;;;;;;;8.27;4.25;;;;;;;;;;5110696;28;20019;-68
2022/04/20 09:45:41;;;;;;;9.00;4.10;;;;;;;;;;5110674;28;20024;-74
2022/04/20 09:51:14;;;;;;;9.63;4.18;;;;;;;;;;5110583;28;20540;-72
2022/04/20 09:53:41;;;;;;;10.27;4.38;;;;;;;;;;5110697;28;20073;-69
2022/04/20 09:56:27;;;;;;;7.75;4.10;;;;;;;;;;5110737;28;20482;-72
2022/04/20 09:59:03;;;;;;;8.32;3.25;;;;;;;;;;5110777;28;20031;-71
2022/04/20 10:01:34;;;;;;;10.70;3.42;;;;;;;;;;5110578;28;20023;-73
2022/04/20 10:04:02;;;;;;;11.82;3.28;;;;;;;;;;5110258;28;20027;-68
2022/04/20 10:06:27;;;;;;;9.35;3.30;;;;;;;;;;5110301;28;20035;-69
2022/04/20 10:08:53;;;;;;;12.52;3.30;;;;;;;;;;5110362;28;20031;-72
2022/04/20 10:11:22;;;;;;;6.07;2.60;;;;;;;;;;5110522;28;20032;-68
2022/04/20 10:16:05;;;;;;;10.75;2.72;;;;;;;;;;5110411;28;20471;-69
2022/04/20 10:16:38;;;;;;;8.90;2.67;;;;;;;;;;5110138;28;20311;-68
2022/04/20 10:19:12;;;;;;;9.20;2.30;;;;;;;;;;5110720;28;20046;-72
2022/04/20 10:21:50;;;;;;;7.35;2.22;;;;;;;;;;5110313;28;20023;-68
2022/04/20 10:24:19;;;;;;;14.52;2.67;;;;;;;;;;5110224;28;20051;-71
2022/04/20 10:26:46;;;;;;;9.48;2.75;;;;;;;;;;5110065;28;20102;-67
2022/04/20 10:29:56;;;;;;;10.45;2.30;;;;;;;;;;5110029;28;20028;-72
2022/04/20 10:32:28;;;;;;;8.15;2.47;;;;;;;;;;5106912;28;20031;-73
2022/04/20 10:34:54;;;;;;;7.43;3.30;;;;;;;;;;5110471;28;20020;-67
2022/04/20 10:37:25;;;;;;;13.90;4.13;;;;;;;;;;5110014;28;20026;-73
2022/04/20 10:39:53;;;;;;;17.40;4.40;;;;;;;;;;5110090;28;20020;-69
2022/04/20 10:42:20;;;;;;;9.90;3.05;;;;;;;;;;5110163;28;20020;-69
2022/04/20 10:44:55;;;;;;;11.50;3.13;;;;;;;;;;5110093;28;20032;-69
2022/04/20 10:47:31;;;;;;;7.45;2.50;;;;;;;;;;5110910;28;20110;-71
2022/04/20 10:50:20;;;;;;;12.27;2.80;;;;;;;;;;5114400;28;20059;-69
2022/04/20 10:52:47;;;;;;;10.35;2.70;;;;;;;;;;5114236;28;20197;-73
2022/04/20 10:55:13;;;;;;;10.70;2.70;;;;;;;;;;5113948;28;20024;-68
2022/04/20 10:57:40;;;;;;;10.88;2.58;;;;;;;;;;5113737;28;20038;-68
2022/04/20 11:00:18;;;;;;;12.48;2.90;;;;;;;;;;5113972;28;20059;-68
2022/04/20 11:02:51;;;;;;;13.88;2.90;;;;;;;;;;5113860;28;20031;-69
2022/04/20 11:05:21;;;;;;;11.35;2.47;;;;;;;;;;5114176;28;20295;-73
2022/04/20 11:08:16;;;;;;;9.40;2.65;;;;;;;;;;5113933;28;20045;-69
2022/04/20 11:18:38;;;;;;;9.35;2.80;;;;;;;;;;5108580;28;20525;-72
2022/04/20 11:19:15;;;;;;;11.90;3.00;;;;;;;;;;5114233;28;20053;-74
2022/04/20 11:22:07;;;;;;;13.57;2.90;;;;;;;;;;5113765;28;20039;-71
2022/04/20 11:24:32;;;;;;;10.85;2.90;;;;;;;;;;5113331;28;20039;-68
2022/04/20 11:27:02;;;;;;;11.00;3.05;;;;;;;;;;5113244;28;20542;-70
2022/04/20 11:29:28;;;;;;;7.57;2.70;;;;;;;;;;5113040;28;20032;-72
2022/04/20 11:31:58;;;;;;;15.07;2.85;;;;;;;;;;5113391;28;20027;-74
2022/04/20 11:34:26;;;;;;;12.52;3.08;;;;;;;;;;5113359;28;20024;-68
2022/04/20 11:36:53;;;;;;;12.27;3.10;;;;;;;;;;5113261;28;20051;-69
2022/04/20 11:39:20;;;;;;;11.15;2.88;;;;;;;;;;5113643;28;20023;-71
2022/04/20 11:41:52;;;;;;;8.02;2.70;;;;;;;;;;5113306;28;20092;-73
2022/04/20 11:44:29;;;;;;;14.07;3.08;;;;;;;;;;5113522;28;20028;-68
2022/04/20 11:47:07;;;;;;;12.77;2.75;;;;;;;;;;5112860;28;20024;-70
2022/04/20 11:49:35;;;;;;;10.90;2.97;;;;;;;;;;5112607;28;20379;-67
2022/04/20 11:52:03;;;;;;;14.85;2.85;;;;;;;;;;5112937;28;20110;-75
2022/04/20 11:54:28;;;;;;;10.35;2.90;;;;;;;;;;5113373;28;20045;-68
2022/04/20 11:56:54;;;;;;;13.82;2.95;;;;;;;;;;5112936;28;20023;-72
2022/04/20 11:59:21;;;;;;;14.60;2.70;;;;;;;;;;5112080;28;20107;-67
2022/04/20 12:01:47;;;;;;;11.63;2.78;;;;;;;;;;5112751;28;20159;-73
2022/04/20 12:04:19;;;;;;;8.27;2.83;;;;;;;;;;5112810;28;20089;-73
2022/04/20 12:06:44;;;;;;;9.65;3.17;;;;;;;;;;5112724;28;20032;-69
2022/04/20 12:09:10;;;;;;;6.22;2.47;;;;;;;;;;5112263;28;20039;-72
2022/04/20 12:11:36;;;;;;;12.18;2.80;;;;;;;;;;5112554;28;20152;-73
2022/04/20 12:14:03;;;;;;;13.63;3.30;;;;;;;;;;5112560;28;20024;-74
2022/04/20 12:16:34;;;;;;;11.13;2.55;;;;;;;;;;5112580;28;20045;-68
2022/04/20 12:19:00;;;;;;;8.60;2.75;;;;;;;;;;5112183;28;20032;-75
2022/04/20 12:21:37;;;;;;;11.75;2.80;;;;;;;;;;5112231;28;20033;-71
2022/04/20 12:24:06;;;;;;;11.52;3.20;;;;;;;;;;5111955;28;20031;-68
2022/04/20 12:26:31;;;;;;;15.23;3.17;;;;;;;;;;5111928;28;20015;-72
2022/04/20 12:29:01;;;;;;;11.68;3.30;;;;;;;;;;5111830;28;20103;-68
2022/04/20 12:31:27;;;;;;;10.70;3.08;;;;;;;;;;5112312;28;20031;-68
2022/04/20 12:34:06;;;;;;;14.02;3.33;;;;;;;;;;5112246;28;20039;-74
2022/04/20 12:36:51;;;;;;;20.75;3.50;;;;;;;;;;5112039;28;20027;-68
2022/04/20 12:39:39;;;;;;;15.38;3.35;;;;;;;;;;5111831;28;20466;-72
2022/04/20 12:42:05;;;;;;;13.05;3.20;;;;;;;;;;5112019;28;21050;-72
2022/04/20 12:44:54;;;;;;;12.80;3.50;;;;;;;;;;5112195;28;20230;-69
2022/04/20 12:47:22;;;;;;;15.38;3.78;;;;;;;;;;5112097;28;20024;-69
2022/04/20 12:49:53;;;;;;;13.52;3.28;;;;;;;;;;5111815;28;20038;-74
2022/04/20 12:52:19;;;;;;;11.85;2.97;;;;;;;;;;5111745;27;20425;-67
2022/04/20 12:55:08;;;;;;;13.93;3.40;;;;;;;;;;5111907;28;20063;-69
2022/04/20 13:03:36;;;;;;;8.90;3.05;;;;;;;;;;5088646;28;20062;-68
2022/04/20 13:06:04;;;;;;;15.18;3.22;;;;;;;;;;5103908;28;20043;-72
2022/04/20 13:08:29;;;;;;;19.25;3.92;;;;;;;;;;5111295;28;20023;-68
2022/04/20 13:10:55;;;;;;;16.20;3.55;;;;;;;;;;5110687;28;20081;-73
2022/04/20 13:13:25;;;;;;;11.65;3.22;;;;;;;;;;5111770;28;20035;-67
2022/04/20 13:15:50;;;;;;;15.52;3.10;;;;;;;;;;5111569;28;20019;-67
2022/04/20 13:18:16;;;;;;;17.00;3.72;;;;;;;;;;5111220;28;20071;-69
2022/04/20 13:20:41;;;;;;;14.60;3.47;;;;;;;;;;5111488;28;20031;-73
2022/04/20 13:23:07;;;;;;;12.00;3.08;;;;;;;;;;5111618;28;20395;-69
2022/04/20 13:28:16;;;;;;;9.93;3.10;;;;;;;;;;5111048;28;20103;-68
2022/04/20 13:30:42;;;;;;;11.43;3.50;;;;;;;;;;5111277;28;20480;-69
2022/04/20 13:33:10;;;;;;;14.00;3.40;;;;;;;;;;5110936;28;20024;-71
2022/04/20 13:35:37;;;;;;;14.77;3.28;;;;;;;;;;5111155;28;20020;-72
2022/04/20 13:38:06;;;;;;;14.20;3.55;;;;;;;;;;5111040;28;20035;-68
2022/04/20 13:40:31;;;;;;;13.73;2.90;;;;;;;;;;5110936;28;20466;-68
2022/04/20 13:42:58;;;;;;;10.82;3.10;;;;;;;;;;5110979;28;20153;-70
2022/04/20 13:45:23;;;;;;;13.45;3.28;;;;;;;;;;5110590;28;20544;-70
2022/04/20 13:47:49;;;;;;;10.18;2.88;;;;;;;;;;5110568;28;20024;-70
2022/04/20 13:50:15;;;;;;;10.43;3.20;;;;;;;;;;5110925;28;20128;-73
2022/04/20 13:52:41;;;;;;;12.15;3.03;;;;;;;;;;5110939;28;20024;-68
2022/04/20 13:55:08;;;;;;;8.80;3.40;;;;;;;;;;5110890;27;20022;-72
2022/04/20 13:57:35;;;;;;;13.60;3.47;;;;;;;;;;5110837;28;20073;-73
2022/04/20 14:00:02;;;;;;;13.77;3.13;;;;;;;;;;5110229;28;20232;-68
2022/04/20 14:02:27;;;;;;;14.02;3.10;;;;;;;;;;5110646;28;20501;-70
2022/04/20 14:04:53;;;;;;;10.05;3.00;;;;;;;;;;5110476;28;20102;-73
2022/04/20 14:07:19;;;;;;;10.20;2.97;;;;;;;;;;5110494;28;20024;-69
2022/04/20 14:09:45;;;;;;;10.18;2.83;;;;;;;;;;5110266;28;20027;-73
2022/04/20 14:12:13;;;;;;;12.50;3.42;;;;;;;;;;5110431;28;20426;-73
2022/04/20 14:14:39;;;;;;;11.50;3.08;;;;;;;;;;5110319;28;20019;-69
2022/04/20 14:17:04;;;;;;;12.18;2.75;;;;;;;;;;5110677;28;20031;-69
2022/04/20 14:19:29;;;;;;;9.60;2.60;;;;;;;;;;5110062;28;20445;-75
2022/04/20 14:21:57;;;;;;;14.73;3.15;;;;;;;;;;5113405;28;20024;-69
2022/04/20 14:24:23;;;;;;;10.20;2.58;;;;;;;;;;5116972;27;20055;-72
2022/04/20 14:32:37;;;;;;;9.15;2.78;;;;;;;;;;5094058;28;20032;-68
2022/04/20 14:35:03;;;;;;;12.70;2.83;;;;;;;;;;5093786;28;20051;-74
2022/04/20 14:37:29;;;;;;;12.73;3.50;;;;;;;;;;5104533;27;20047;-74
2022/04/20 14:39:57;;;;;;;10.32;2.92;;;;;;;;;;5116748;27;20411;-75
2022/04/20 14:42:23;;;;;;;8.82;2.78;;;;;;;;;;5117050;27;20034;-67
2022/04/20 14:44:49;;;;;;;13.07;3.10;;;;;;;;;;5116955;27;20038;-70
2022/04/20 14:47:14;;;;;;;11.88;2.90;;;;;;;;;;5117099;27;20027;-68
2022/04/20 14:49:41;;;;;;;10.98;3.03;;;;;;;;;;5116883;27;20039;-72
2022/04/20 14:52:09;;;;;;;10.57;2.92;;;;;;;;;;5116811;27;20027;-73
2022/04/20 14:54:36;;;;;;;9.65;3.20;;;;;;;;;;5116854;27;20456;-68
2022/04/20 14:57:03;;;;;;;11.32;3.17;;;;;;;;;;5116840;27;20110;-73
2022/04/20 14:59:28;;;;;;;9.45;2.80;;;;;;;;;;5116730;27;20055;-71
2022/04/20 15:01:54;;;;;;;15.55;2.83;;;;;;;;;;5116813;28;20051;-73
2022/04/20 15:04:20;;;;;;;13.05;2.75;;;;;;;;;;5116907;27;20088;-68
2022/04/20 15:06:50;;;;;;;9.32;2.60;;;;;;;;;;5116869;27;20024;-70
2022/04/20 15:09:16;;;;;;;6.78;2.58;;;;;;;;;;5116813;27;20089;-72
2022/04/20 15:11:41;;;;;;;11.80;2.92;;;;;;;;;;5116695;27;20034;-71
2022/04/20 15:14:07;;;;;;;13.70;3.08;;;;;;;;;;5116436;27;20023;-73
2022/04/20 15:16:32;;;;;;;7.93;2.58;;;;;;;;;;5116579;27;20031;-68
2022/04/20 15:18:58;;;;;;;8.32;3.08;;;;;;;;;;5116513;27;20057;-68